createdAt,value
2022-08-02T00:00:41.039Z,1.50
2022-08-02T00:03:09.153Z,1.17
2022-08-02T00:05:37.388Z,1.08
2022-08-02T00:08:06.091Z,1.13
2022-08-02T00:10:35.602Z,1.17
2022-08-02T00:13:03.715Z,1.10
2022-08-02T00:15:31.816Z,1.20
2022-08-02T00:17:59.938Z,1.13
2022-08-02T00:20:28.089Z,1.25
2022-08-02T00:22:56.210Z,0.90
2022-08-02T00:25:24.225Z,1.17
2022-08-02T00:27:53.729Z,1.13
2022-08-02T00:30:21.794Z,1.35
2022-08-02T00:32:49.987Z,1.15
2022-08-02T00:35:18.238Z,0.90
2022-08-02T00:37:46.342Z,1.10
2022-08-02T00:40:14.553Z,1.33
2022-08-02T00:42:44.132Z,1.30
2022-08-02T00:45:13.542Z,1.15
2022-08-02T00:47:41.647Z,1.17
2022-08-02T00:50:10.595Z,1.35
2022-08-02T00:52:38.656Z,1.48
2022-08-02T00:55:07.579Z,1.40
2022-08-02T00:57:35.701Z,1.13
2022-08-02T01:00:04.956Z,1.20
2022-08-02T01:02:34.530Z,1.48
2022-08-02T01:05:02.771Z,0.95
2022-08-02T01:07:30.827Z,1.55
2022-08-02T01:10:00.180Z,1.00
2022-08-02T01:12:28.598Z,1.15
2022-08-02T01:14:59.580Z,1.15
2022-08-02T01:17:33.534Z,1.08
2022-08-02T01:20:09.665Z,1.20
2022-08-02T01:23:03.426Z,1.10
2022-08-02T01:25:58.166Z,0.98
2022-08-02T01:28:33.519Z,1.70
2022-08-02T01:31:05.537Z,1.45
2022-08-02T01:33:42.636Z,1.20
2022-08-02T01:36:14.030Z,1.23
2022-08-02T01:38:46.919Z,1.00
2022-08-02T01:41:19.723Z,1.30
2022-08-02T01:43:52.547Z,0.85
2022-08-02T01:46:22.676Z,1.00
2022-08-02T01:48:54.410Z,1.00
2022-08-02T01:51:44.955Z,1.10
2022-08-02T01:54:16.609Z,1.23
2022-08-02T01:56:46.439Z,1.00
2022-08-02T01:59:22.842Z,1.30
2022-08-02T02:01:55.123Z,1.50
2022-08-02T02:04:24.672Z,1.27
2022-08-02T02:06:54.000Z,1.00
2022-08-02T02:09:23.726Z,0.90
2022-08-02T02:12:06.507Z,0.77
2022-08-02T02:14:51.769Z,1.23
2022-08-02T02:17:57.101Z,1.00
2022-08-02T02:20:15.713Z,1.10
2022-08-02T02:22:44.122Z,0.90
2022-08-02T02:25:15.071Z,1.20
2022-08-02T02:27:49.469Z,1.38
2022-08-02T02:30:19.608Z,0.93
2022-08-02T02:32:49.278Z,1.30
2022-08-02T02:37:49.325Z,1.00
2022-08-02T02:40:18.986Z,1.15
2022-08-02T02:42:49.591Z,1.10
2022-08-02T02:45:21.428Z,0.85
2022-08-02T02:47:50.875Z,1.45
2022-08-02T02:50:20.030Z,1.42
2022-08-02T02:52:49.267Z,1.13
2022-08-02T02:55:18.913Z,1.35
2022-08-02T02:57:47.701Z,1.33
2022-08-02T03:00:16.298Z,1.83
2022-08-02T03:02:46.846Z,1.45
2022-08-02T03:05:16.676Z,1.35
2022-08-02T03:07:44.767Z,1.40
2022-08-02T03:10:12.871Z,1.17
2022-08-02T03:12:41.163Z,1.52
2022-08-02T03:15:11.338Z,1.52
2022-08-02T03:17:43.410Z,1.45
2022-08-02T03:20:15.322Z,1.50
2022-08-02T03:22:44.871Z,1.27
2022-08-02T03:27:42.184Z,1.45
2022-08-02T03:30:12.563Z,1.10
2022-08-02T03:32:42.948Z,1.45
2022-08-02T03:35:19.870Z,1.20
2022-08-02T03:37:49.517Z,1.27
2022-08-02T03:40:18.912Z,1.65
2022-08-02T03:42:47.649Z,1.73
2022-08-02T03:45:16.133Z,1.00
2022-08-02T03:47:45.344Z,1.38
2022-08-02T03:50:15.239Z,1.80
2022-08-02T03:52:43.836Z,1.20
2022-08-02T03:55:13.793Z,1.40
2022-08-02T03:57:42.785Z,1.15
2022-08-02T04:00:13.029Z,1.27
2022-08-02T04:02:41.046Z,0.98
2022-08-02T04:05:09.793Z,1.00
2022-08-02T04:08:02.435Z,1.40
2022-08-02T04:12:55.195Z,1.20
2022-08-02T04:15:24.549Z,1.27
2022-08-02T04:17:57.560Z,1.60
2022-08-02T04:20:29.390Z,1.10
2022-08-02T04:23:02.899Z,1.02
2022-08-02T04:25:38.081Z,1.10
2022-08-02T04:28:17.797Z,1.70
2022-08-02T04:30:48.317Z,1.25
2022-08-02T04:33:17.454Z,1.77
2022-08-02T04:35:46.184Z,1.08
2022-08-02T04:38:16.142Z,1.40
2022-08-02T04:40:51.743Z,1.42
2022-08-02T04:43:20.291Z,1.27
2022-08-02T04:45:50.700Z,1.10
2022-08-02T04:48:18.896Z,1.42
2022-08-02T04:50:47.101Z,0.98
2022-08-02T04:53:16.926Z,1.23
2022-08-02T04:55:45.115Z,1.20
2022-08-02T04:58:38.678Z,1.63
2022-08-02T05:01:01.963Z,1.60
2022-08-02T05:03:30.227Z,2.20
2022-08-02T05:05:58.593Z,1.42
2022-08-02T05:08:28.228Z,1.65
2022-08-02T05:10:56.365Z,1.70
2022-08-02T05:13:24.454Z,1.88
2022-08-02T05:15:52.526Z,1.15
2022-08-02T05:18:20.751Z,1.42
2022-08-02T05:20:48.812Z,1.63
2022-08-02T05:23:16.945Z,1.90
2022-08-02T05:25:46.394Z,1.65
2022-08-02T05:28:14.511Z,1.55
2022-08-02T05:30:42.563Z,1.20
2022-08-02T05:33:11.801Z,1.38
2022-08-02T05:35:39.855Z,1.73
2022-08-02T05:38:10.199Z,1.50
2022-08-02T05:40:54.393Z,1.80
2022-08-02T05:43:24.789Z,1.08
2022-08-02T05:45:54.469Z,1.70
2022-08-02T05:51:02.160Z,1.67
2022-08-02T05:53:37.671Z,1.75
2022-08-02T05:56:16.872Z,1.67
2022-08-02T05:58:53.955Z,1.67
2022-08-02T06:01:29.205Z,1.40
2022-08-02T06:03:58.911Z,1.27
2022-08-02T06:09:00.525Z,1.42
2022-08-02T06:11:37.636Z,1.20
2022-08-02T06:14:08.264Z,1.70
2022-08-02T06:16:42.466Z,1.08
2022-08-02T06:19:13.637Z,1.27
2022-08-02T06:22:35.268Z,1.27
2022-08-02T06:24:32.459Z,1.30
2022-08-02T06:27:02.193Z,1.33
2022-08-02T06:29:38.512Z,1.83
2022-08-02T06:32:08.988Z,1.77
2022-08-02T06:34:38.258Z,1.55
2022-08-02T06:37:14.885Z,1.40
2022-08-02T06:39:46.554Z,0.65
2022-08-02T06:42:25.550Z,1.25
2022-08-02T06:44:58.571Z,1.15
2022-08-02T06:47:27.384Z,1.70
2022-08-02T06:49:58.280Z,1.37
2022-08-02T06:52:29.714Z,1.48
2022-08-02T06:54:59.831Z,1.27
2022-08-02T06:57:28.719Z,1.33
2022-08-02T07:00:01.659Z,1.60
2022-08-02T07:02:30.484Z,1.70
2022-08-02T07:04:58.804Z,1.63
2022-08-02T07:07:27.904Z,1.67
2022-08-02T07:10:01.172Z,1.40
2022-08-02T07:12:32.019Z,1.33
2022-08-02T07:15:02.910Z,1.38
2022-08-02T07:17:31.513Z,1.42
2022-08-02T07:20:00.343Z,0.95
2022-08-02T07:22:29.462Z,1.07
2022-08-02T07:24:59.227Z,1.10
2022-08-02T07:27:28.356Z,1.23
2022-08-02T07:29:57.277Z,0.90
2022-08-02T07:32:29.264Z,1.40
2022-08-02T07:34:58.512Z,1.48
2022-08-02T07:37:53.114Z,1.10
2022-08-02T07:40:19.510Z,0.90
2022-08-02T07:42:52.030Z,0.80
2022-08-02T07:45:22.976Z,0.80
2022-08-02T07:47:53.075Z,0.80
2022-08-02T07:50:22.663Z,0.80
2022-08-02T07:52:57.218Z,0.60
2022-08-02T07:55:39.283Z,0.60
2022-08-02T07:58:11.978Z,0.70
2022-08-02T08:00:43.621Z,0.60
2022-08-02T08:03:13.605Z,0.77
2022-08-02T08:05:42.102Z,0.77
2022-08-02T08:08:15.020Z,0.60
2022-08-02T08:10:45.634Z,0.60
2022-08-02T08:13:13.757Z,0.60
2022-08-02T08:15:41.917Z,0.75
2022-08-02T08:18:21.705Z,1.05
2022-08-02T08:20:50.121Z,0.55
2022-08-02T08:23:18.291Z,0.50
2022-08-02T08:25:46.537Z,0.43
2022-08-02T08:28:14.789Z,0.45
2022-08-02T08:30:42.915Z,0.55
2022-08-02T08:33:11.068Z,1.75
2022-08-02T08:35:40.585Z,0.40
2022-08-02T08:38:09.284Z,0.40
2022-08-02T08:40:37.716Z,0.50
2022-08-02T08:43:06.666Z,0.40
2022-08-02T08:45:34.962Z,0.30
2022-08-02T08:48:09.203Z,0.40
2022-08-02T08:50:45.947Z,0.50
2022-08-02T08:53:15.997Z,0.60
2022-08-02T08:55:44.738Z,0.47
2022-08-02T08:58:13.920Z,0.40
2022-08-02T09:00:42.508Z,0.40
2022-08-02T09:03:11.661Z,0.32
2022-08-02T09:05:43.290Z,0.40
2022-08-02T09:08:16.712Z,0.22
2022-08-02T09:10:47.090Z,0.25
2022-08-02T09:13:37.794Z,0.30
2022-08-02T09:16:12.450Z,0.50
2022-08-02T09:18:45.142Z,0.35
2022-08-02T09:21:17.242Z,0.40
2022-08-02T09:23:47.361Z,0.50
2022-08-02T09:26:17.361Z,0.32
2022-08-02T09:28:47.791Z,0.30
2022-08-02T09:31:18.053Z,0.30
2022-08-02T09:33:52.511Z,0.25
2022-08-02T09:36:22.806Z,0.40
2022-08-02T09:38:56.761Z,0.40
2022-08-02T09:41:26.940Z,0.20
2022-08-02T09:44:04.854Z,0.25
2022-08-02T09:46:37.694Z,0.30
2022-08-02T09:49:09.338Z,0.40
2022-08-02T09:51:40.945Z,0.20
2022-08-02T09:54:11.751Z,0.55
2022-08-02T09:56:49.447Z,0.25
2022-08-02T09:59:19.561Z,0.35
2022-08-02T10:01:51.723Z,0.17
2022-08-02T10:04:31.652Z,0.40
2022-08-02T10:07:03.913Z,0.40
2022-08-02T10:09:33.239Z,0.35
2022-08-02T10:12:03.586Z,0.28
2022-08-02T10:14:35.577Z,0.20
2022-08-02T10:17:05.000Z,0.30
2022-08-02T10:20:01.730Z,0.30
2022-08-02T10:22:25.528Z,0.28
2022-08-02T10:24:54.890Z,0.28
2022-08-02T10:27:25.648Z,0.22
2022-08-02T10:29:58.836Z,0.40
2022-08-02T10:32:31.006Z,0.68
2022-08-02T10:35:19.877Z,0.10
2022-08-02T10:38:00.998Z,0.30
2022-08-02T10:40:44.860Z,0.20
2022-08-02T10:43:14.089Z,0.22
2022-08-02T10:45:42.199Z,0.20
2022-08-02T10:48:11.921Z,0.57
2022-08-02T10:50:56.596Z,0.20
2022-08-02T10:53:30.951Z,0.13
2022-08-02T10:56:00.256Z,0.20
2022-08-02T10:58:30.363Z,0.38
2022-08-02T11:00:59.963Z,0.10
2022-08-02T11:03:42.216Z,0.25
2022-08-02T11:06:25.620Z,0.25
2022-08-02T11:09:33.376Z,0.17
2022-08-02T11:12:04.357Z,0.20
2022-08-02T11:14:33.931Z,0.30
2022-08-02T11:17:22.674Z,0.20
2022-08-02T11:20:18.664Z,0.20
2022-08-02T11:22:48.167Z,0.32
2022-08-02T11:26:03.157Z,0.13
2022-08-02T11:28:30.598Z,0.20
2022-08-02T11:30:59.682Z,0.30
2022-08-02T11:33:35.958Z,0.22
2022-08-02T11:36:06.979Z,0.30
2022-08-02T11:38:35.168Z,0.20
2022-08-02T11:41:06.026Z,0.45
2022-08-02T11:43:35.040Z,0.40
2022-08-02T11:46:04.106Z,0.20
2022-08-02T11:53:41.798Z,0.20
2022-08-02T11:56:11.490Z,0.28
2022-08-02T11:58:41.947Z,0.35
2022-08-02T12:01:10.294Z,0.20
2022-08-02T12:03:39.814Z,0.30
2022-08-02T12:06:16.378Z,0.20
2022-08-02T12:08:54.462Z,0.22
2022-08-02T12:11:24.194Z,0.20
2022-08-02T12:13:56.529Z,0.30
2022-08-02T12:16:43.915Z,0.30
2022-08-02T12:19:23.195Z,0.20
2022-08-02T12:22:09.239Z,0.10
2022-08-02T12:24:38.281Z,0.20
2022-08-02T12:27:08.530Z,0.20
2022-08-02T12:29:58.161Z,0.30
2022-08-02T12:32:27.591Z,0.30
2022-08-02T12:37:30.977Z,0.20
2022-08-02T12:39:59.840Z,0.30
2022-08-02T12:44:59.557Z,0.30
2022-08-02T12:47:31.146Z,0.10
2022-08-02T12:50:14.015Z,0.08
2022-08-02T12:52:42.160Z,0.20
2022-08-02T12:55:24.206Z,0.20
2022-08-02T12:57:55.940Z,0.20
2022-08-02T13:00:26.378Z,0.20
2022-08-02T13:02:54.544Z,0.13
2022-08-02T13:05:22.663Z,0.30
2022-08-02T13:07:50.992Z,0.50
2022-08-02T13:10:19.512Z,0.30
2022-08-02T13:12:47.717Z,0.68
2022-08-02T13:15:49.087Z,0.40
2022-08-02T13:18:06.345Z,0.20
2022-08-02T13:20:34.396Z,0.20
2022-08-02T13:23:03.796Z,0.20
2022-08-02T13:25:32.493Z,0.22
2022-08-02T13:28:00.678Z,0.10
2022-08-02T13:30:31.031Z,0.40
2022-08-02T13:33:01.165Z,0.20
2022-08-02T13:35:29.868Z,0.30
2022-08-02T13:37:58.093Z,0.25
2022-08-02T13:40:26.687Z,0.40
2022-08-02T13:42:54.811Z,0.30
2022-08-02T13:45:23.002Z,0.10
2022-08-02T13:47:57.379Z,0.20
2022-08-02T13:50:33.198Z,0.15
2022-08-02T13:53:01.545Z,0.20
2022-08-02T13:55:29.739Z,0.30
2022-08-02T13:57:58.058Z,0.17
2022-08-02T14:00:35.049Z,0.10
2022-08-02T14:03:07.241Z,0.30
2022-08-02T14:05:47.793Z,0.45
2022-08-02T14:08:18.207Z,0.20
2022-08-02T14:10:47.414Z,0.30
2022-08-02T14:13:15.815Z,0.20
2022-08-02T14:15:44.753Z,0.20
2022-08-02T14:18:15.282Z,0.10
2022-08-02T14:20:44.965Z,0.13
2022-08-02T14:23:13.335Z,0.30
2022-08-02T14:25:42.055Z,0.30
2022-08-02T14:30:38.671Z,0.20
2022-08-02T14:33:06.851Z,0.38
2022-08-02T14:35:36.483Z,0.20
2022-08-02T14:38:04.766Z,0.20
2022-08-02T14:40:33.163Z,0.25
2022-08-02T14:43:01.581Z,0.30
2022-08-02T14:45:40.217Z,0.50
2022-08-02T14:48:13.020Z,0.20
2022-08-02T14:50:42.515Z,0.22
2022-08-02T14:53:12.652Z,0.10
2022-08-02T14:55:42.519Z,0.30
2022-08-02T14:58:10.826Z,0.35
2022-08-02T15:00:41.072Z,0.28
2022-08-02T15:03:10.694Z,0.20
2022-08-02T15:08:08.493Z,0.45
2022-08-02T15:10:36.859Z,0.20
2022-08-02T15:13:04.966Z,0.40
2022-08-02T15:15:33.298Z,0.67
2022-08-02T15:18:12.339Z,0.20
2022-08-02T15:23:15.229Z,0.15
2022-08-02T15:25:44.773Z,0.28
2022-08-02T15:28:12.904Z,0.20
2022-08-02T15:30:41.142Z,0.35
2022-08-02T15:33:09.243Z,0.10
2022-08-02T15:35:37.430Z,0.30
2022-08-02T15:38:05.589Z,0.10
2022-08-02T15:40:35.100Z,0.30
2022-08-02T15:43:03.319Z,0.17
2022-08-02T15:45:31.438Z,0.30
2022-08-02T15:47:59.653Z,0.20
2022-08-02T15:50:28.215Z,0.20
2022-08-02T15:52:56.310Z,0.20
2022-08-02T15:55:24.502Z,0.40
2022-08-02T15:57:54.074Z,1.13
2022-08-02T16:00:22.333Z,0.28
2022-08-02T16:02:50.474Z,0.50
2022-08-02T16:05:19.964Z,0.22
2022-08-02T16:07:48.447Z,0.38
2022-08-02T16:10:18.017Z,0.20
2022-08-02T16:12:46.142Z,0.20
2022-08-02T16:15:15.772Z,0.52
2022-08-02T16:17:53.550Z,0.20
2022-08-02T16:20:23.116Z,0.30
2022-08-02T16:22:51.380Z,0.45
2022-08-02T16:25:19.630Z,0.40
2022-08-02T16:28:06.130Z,0.27
2022-08-02T16:30:37.397Z,0.40
2022-08-02T16:33:05.686Z,0.30
2022-08-02T16:35:34.827Z,0.20
2022-08-02T16:40:32.550Z,0.45
2022-08-02T16:43:00.788Z,0.17
2022-08-02T16:45:29.551Z,0.20
2022-08-02T16:48:05.452Z,0.40
2022-08-02T16:50:34.600Z,0.32
2022-08-02T16:55:51.493Z,0.50
2022-08-02T16:58:20.255Z,0.25
2022-08-02T17:00:48.371Z,0.20
2022-08-02T17:03:18.679Z,0.30
2022-08-02T17:05:55.690Z,0.20
2022-08-02T17:08:31.900Z,0.40
2022-08-02T17:11:03.430Z,0.60
2022-08-02T17:13:34.334Z,0.30
2022-08-02T17:16:26.380Z,0.22
2022-08-02T17:18:57.486Z,0.30
2022-08-02T17:21:25.650Z,0.32
2022-08-02T17:24:05.624Z,0.20
2022-08-02T17:26:36.454Z,0.22
2022-08-02T17:29:16.447Z,0.57
2022-08-02T17:32:04.791Z,0.57
2022-08-02T17:34:37.744Z,0.20
2022-08-02T17:37:06.745Z,0.30
2022-08-02T17:39:44.337Z,0.52
2022-08-02T17:42:23.249Z,0.40
2022-08-02T17:44:53.875Z,0.30
2022-08-02T17:47:22.304Z,0.40
2022-08-02T17:49:53.064Z,0.30
2022-08-02T17:52:50.201Z,0.20
2022-08-02T17:55:12.881Z,0.30
2022-08-02T17:57:58.035Z,0.22
2022-08-02T18:00:33.939Z,0.50
2022-08-02T18:03:05.760Z,0.30
2022-08-02T18:05:40.068Z,0.43
2022-08-02T18:08:22.787Z,0.30
2022-08-02T18:10:52.303Z,0.38
2022-08-02T18:13:20.786Z,0.40
2022-08-02T18:15:48.932Z,0.40
2022-08-02T18:18:19.179Z,0.25
2022-08-02T18:21:16.258Z,0.45
2022-08-02T18:23:48.618Z,0.30
2022-08-02T18:28:49.378Z,0.30
2022-08-02T18:31:22.739Z,0.10
2022-08-02T18:33:58.233Z,0.40
2022-08-02T18:36:47.391Z,0.40
2022-08-02T18:39:16.373Z,0.30
2022-08-02T18:41:45.215Z,0.30
2022-08-02T18:44:16.905Z,0.45
2022-08-02T18:46:49.369Z,0.38
2022-08-02T18:49:17.782Z,0.50
2022-08-02T18:51:47.335Z,0.32
2022-08-02T18:54:16.182Z,0.47
2022-08-02T18:56:55.801Z,0.40
2022-08-02T18:59:25.546Z,0.20
2022-08-02T19:01:53.705Z,0.22
2022-08-02T19:04:27.037Z,0.40
2022-08-02T19:07:05.412Z,0.50
2022-08-02T19:09:40.259Z,0.57
2022-08-02T19:12:11.322Z,0.50
2022-08-02T19:14:40.058Z,0.47
2022-08-02T19:17:53.388Z,0.50
2022-08-02T19:19:56.588Z,0.40
2022-08-02T19:22:27.223Z,0.65
2022-08-02T19:25:00.085Z,0.40
2022-08-02T19:27:32.181Z,0.40
2022-08-02T19:30:02.793Z,0.45
2022-08-02T19:32:42.984Z,0.50
2022-08-02T19:35:29.745Z,0.65
2022-08-02T19:38:09.171Z,0.63
2022-08-02T19:40:38.591Z,0.57
2022-08-02T19:44:27.203Z,0.70
2022-08-02T19:45:57.002Z,0.30
2022-08-02T19:48:26.831Z,0.60
2022-08-02T19:51:00.892Z,0.40
2022-08-02T19:53:47.636Z,0.60
2022-08-02T19:56:24.734Z,0.47
2022-08-02T19:58:54.833Z,0.65
2022-08-02T20:04:13.151Z,0.73
2022-08-02T20:06:45.586Z,0.80
2022-08-02T20:09:17.120Z,0.70
2022-08-02T20:11:54.187Z,0.60
2022-08-02T20:14:27.033Z,0.55
2022-08-02T20:16:56.745Z,0.65
2022-08-02T20:19:25.148Z,0.60
2022-08-02T20:21:59.572Z,0.60
2022-08-02T20:24:30.069Z,0.50
2022-08-02T20:26:59.809Z,0.60
2022-08-02T20:29:43.340Z,0.50
2022-08-02T20:32:21.814Z,0.30
2022-08-02T20:34:52.656Z,0.40
2022-08-02T20:37:59.223Z,0.25
2022-08-02T20:40:16.555Z,0.43
2022-08-02T20:42:47.914Z,0.40
2022-08-02T20:45:16.571Z,0.45
2022-08-02T20:47:45.843Z,0.80
2022-08-02T20:50:36.574Z,0.40
2022-08-02T20:53:05.607Z,0.30
2022-08-02T20:55:40.794Z,0.35
2022-08-02T20:58:11.867Z,0.65
2022-08-02T21:00:40.437Z,0.57
2022-08-02T21:03:10.089Z,0.30
2022-08-02T21:08:24.359Z,0.40
2022-08-02T21:10:55.522Z,0.50
2022-08-02T21:13:26.107Z,0.35
2022-08-02T21:18:40.376Z,0.50
2022-08-02T21:21:10.176Z,0.60
2022-08-02T21:23:48.632Z,0.40
2022-08-02T21:26:28.554Z,0.60
2022-08-02T21:29:00.784Z,0.40
2022-08-02T21:31:32.184Z,0.60
2022-08-02T21:34:03.807Z,0.70
2022-08-02T21:36:51.011Z,0.95
2022-08-02T21:39:20.513Z,0.70
2022-08-02T21:44:19.546Z,0.75
2022-08-02T21:50:08.673Z,0.95
2022-08-02T21:52:25.933Z,1.05
2022-08-02T21:54:55.078Z,1.20
2022-08-02T21:57:25.193Z,1.33
2022-08-02T22:00:04.526Z,1.38
2022-08-02T22:02:36.993Z,1.42
2022-08-02T22:05:05.762Z,1.30
2022-08-02T22:07:45.735Z,1.60
2022-08-02T22:10:14.072Z,1.23
2022-08-02T22:12:45.391Z,1.70
2022-08-02T22:15:13.538Z,1.20
2022-08-02T22:17:53.625Z,1.10
2022-08-02T22:20:29.157Z,1.60
2022-08-02T22:22:58.525Z,1.30
2022-08-02T22:25:36.532Z,0.98
2022-08-02T22:28:36.533Z,1.35
2022-08-02T22:31:00.217Z,1.10
2022-08-02T22:33:47.135Z,1.55
2022-08-02T22:36:29.080Z,1.20
2022-08-02T22:38:57.286Z,1.80
2022-08-02T22:41:25.503Z,1.38
2022-08-02T22:44:15.176Z,1.52
2022-08-02T22:46:46.912Z,1.05
2022-08-02T22:52:07.024Z,1.30
2022-08-02T22:54:35.061Z,1.15
2022-08-02T22:57:03.099Z,1.25
2022-08-02T22:58:35.329Z,0.50
2022-08-02T22:59:09.878Z,1.25
2022-08-02T22:59:39.887Z,1.30
2022-08-02T23:02:08.783Z,0.90
2022-08-02T23:04:37.546Z,1.40
2022-08-02T23:07:06.028Z,1.00
2022-08-02T23:09:34.455Z,0.95
2022-08-02T23:12:02.816Z,1.25
2022-08-02T23:14:31.512Z,1.30
2022-08-02T23:17:18.712Z,1.67
2022-08-02T23:19:53.032Z,1.23
2022-08-02T23:22:29.307Z,0.75
2022-08-02T23:25:01.186Z,1.35
2022-08-02T23:27:29.761Z,0.70
2022-08-02T23:29:58.224Z,1.08
2022-08-02T23:32:28.415Z,0.90
2022-08-02T23:34:58.257Z,0.95
2022-08-02T23:37:26.407Z,1.00
2022-08-02T23:39:54.547Z,0.70
2022-08-02T23:42:23.366Z,0.55
2022-08-02T23:44:51.833Z,0.75
2022-08-02T23:47:20.257Z,0.40
2022-08-02T23:49:49.805Z,0.55
2022-08-02T23:52:18.558Z,0.60
2022-08-02T23:54:46.838Z,0.77
2022-08-02T23:57:20.920Z,0.70
2022-08-02T23:59:50.998Z,0.60
